createdAt,value
2023-02-11T00:02:13.237Z,103319.22
2023-02-11T00:04:39.849Z,103319.22
2023-02-11T00:07:06.533Z,103313.84
2023-02-11T00:09:33.173Z,103309.34
2023-02-11T00:11:59.707Z,103308.47
2023-02-11T00:14:26.758Z,103307.59
2023-02-11T00:16:53.391Z,103302.25
2023-02-11T00:19:20.431Z,103304.06
2023-02-11T00:21:46.965Z,103300.50
2023-02-11T00:24:13.500Z,103294.19
2023-02-11T00:26:40.162Z,103304.94
2023-02-11T00:29:07.085Z,103313.94
2023-02-11T00:31:34.463Z,103309.44
2023-02-11T00:34:01.270Z,103299.63
2023-02-11T00:36:29.756Z,103309.44
2023-02-11T00:38:57.513Z,103291.56
2023-02-11T00:41:24.564Z,103296.97
2023-02-11T00:43:52.221Z,103301.47
2023-02-11T00:46:19.406Z,103303.34
2023-02-11T00:48:46.002Z,103299.78
2023-02-11T00:51:12.757Z,103307.78
2023-02-11T00:53:39.689Z,103310.53
2023-02-11T00:56:07.983Z,103316.84
2023-02-11T00:58:35.225Z,103304.28
2023-02-11T01:01:02.011Z,103310.53
2023-02-11T01:03:28.996Z,103318.59
2023-02-11T01:05:55.744Z,103306.97
2023-02-11T01:08:22.786Z,103306.97
2023-02-11T01:11:04.882Z,103315.94
2023-02-11T01:13:35.215Z,103307.00
2023-02-11T01:16:02.139Z,103314.25
2023-02-11T01:18:28.893Z,103314.28
2023-02-11T01:20:55.629Z,103316.97
2023-02-11T01:23:23.286Z,103320.59
2023-02-11T01:25:50.506Z,103323.28
2023-02-11T01:28:25.600Z,103327.78
2023-02-11T01:30:52.549Z,103317.91
2023-02-11T01:33:19.664Z,103314.28
2023-02-11T01:35:46.613Z,103301.84
2023-02-11T01:38:24.412Z,103300.97
2023-02-11T01:40:54.221Z,103288.44
2023-02-11T01:43:21.879Z,103283.06
2023-02-11T01:45:48.737Z,103274.97
2023-02-11T01:48:20.686Z,103271.34
2023-02-11T01:50:50.799Z,103260.59
2023-02-11T01:53:38.221Z,103257.84
2023-02-11T01:56:24.415Z,103250.66
2023-02-11T01:58:53.322Z,103253.47
2023-02-11T02:01:25.123Z,103254.44
2023-02-11T02:03:56.793Z,103255.47
2023-02-11T02:06:32.165Z,103262.72
2023-02-11T02:09:27.977Z,103270.00
2023-02-11T02:11:54.735Z,103287.00
2023-02-11T02:14:21.563Z,103292.41
2023-02-11T02:16:48.302Z,103305.91
2023-02-11T02:19:48.722Z,103301.47
2023-02-11T02:22:55.497Z,103281.81
2023-02-11T02:25:35.373Z,103284.41
2023-02-11T02:28:26.493Z,103275.38
2023-02-11T02:31:14.759Z,103273.59
2023-02-11T02:33:45.426Z,103247.72
2023-02-11T02:36:23.871Z,103257.59
2023-02-11T02:39:01.435Z,103252.25
2023-02-11T02:41:31.785Z,103245.94
2023-02-11T02:43:58.704Z,103241.47
2023-02-11T02:46:31.515Z,103246.84
2023-02-11T02:48:59.151Z,103271.03
2023-02-11T02:51:56.197Z,103272.78
2023-02-11T02:55:01.544Z,103277.22
2023-02-11T02:57:53.166Z,103279.03
2023-02-11T03:00:44.428Z,103270.13
2023-02-11T03:03:36.019Z,103264.81
2023-02-11T03:06:32.123Z,103248.66
2023-02-11T03:09:12.997Z,103251.28
2023-02-11T03:11:40.037Z,103257.53
2023-02-11T03:14:10.572Z,103256.59
2023-02-11T03:16:39.668Z,103249.47
2023-02-11T03:19:13.877Z,103247.72
2023-02-11T03:21:43.376Z,103247.75
2023-02-11T03:24:19.431Z,103251.44
2023-02-11T03:26:51.498Z,103248.75
2023-02-11T03:29:29.908Z,103247.00
2023-02-11T03:32:06.950Z,103247.91
2023-02-11T03:34:42.339Z,103261.44
2023-02-11T03:37:22.184Z,103260.56
2023-02-11T03:39:56.395Z,103258.75
2023-02-11T03:42:27.225Z,103263.25
2023-02-11T03:45:02.270Z,103254.31
2023-02-11T03:47:33.915Z,103248.13
2023-02-11T03:50:03.321Z,103244.50
2023-02-11T03:52:30.772Z,103242.75
2023-02-11T03:55:00.485Z,103240.94
2023-02-11T03:57:27.216Z,103239.13
2023-02-11T03:59:59.181Z,103229.34
2023-02-11T04:02:30.742Z,103232.09
2023-02-11T04:04:57.777Z,103229.47
2023-02-11T04:07:25.213Z,103234.00
2023-02-11T04:09:51.870Z,103220.63
2023-02-11T04:12:18.400Z,103218.94
2023-02-11T04:14:45.141Z,103207.34
2023-02-11T04:17:12.807Z,103207.34
2023-02-11T04:19:39.849Z,103214.50
2023-02-11T04:22:07.417Z,103218.09
2023-02-11T04:24:34.654Z,103225.31
2023-02-11T04:27:01.291Z,103222.66
2023-02-11T04:29:28.340Z,103234.31
2023-02-11T04:31:55.366Z,103235.19
2023-02-11T04:34:22.328Z,103233.38
2023-02-11T04:36:49.479Z,103233.38
2023-02-11T04:39:16.118Z,103239.63
2023-02-11T04:41:42.807Z,103252.16
2023-02-11T04:44:10.007Z,103247.66
2023-02-11T04:46:37.010Z,103247.59
2023-02-11T04:49:03.994Z,103239.53
2023-02-11T04:51:30.728Z,103241.34
2023-02-11T04:53:57.473Z,103243.94
2023-02-11T04:56:24.103Z,103240.31
2023-02-11T04:58:50.644Z,103239.38
2023-02-11T05:01:17.573Z,103243.00
2023-02-11T05:03:44.546Z,103242.09
2023-02-11T05:06:11.775Z,103242.09
2023-02-11T05:08:38.617Z,103236.72
2023-02-11T05:11:06.176Z,103242.06
2023-02-11T05:13:32.912Z,103242.00
2023-02-11T05:15:59.958Z,103233.91
2023-02-11T05:18:26.493Z,103247.28
2023-02-11T05:20:53.132Z,103240.97
2023-02-11T05:23:19.667Z,103233.75
2023-02-11T05:25:46.299Z,103226.56
2023-02-11T05:28:12.970Z,103226.53
2023-02-11T05:30:39.866Z,103222.91
2023-02-11T05:33:06.722Z,103232.78
2023-02-11T05:35:33.338Z,103228.28
2023-02-11T05:38:00.135Z,103234.53
2023-02-11T05:40:26.837Z,103233.66
2023-02-11T05:42:53.474Z,103222.97
2023-02-11T05:45:20.084Z,103221.19
2023-02-11T05:47:46.774Z,103223.88
2023-02-11T05:50:13.569Z,103232.81
2023-02-11T05:52:40.118Z,103231.03
2023-02-11T05:55:07.066Z,103230.97
2023-02-11T05:57:34.007Z,103238.16
2023-02-11T06:00:00.658Z,103241.72
2023-02-11T06:02:27.318Z,103237.16
2023-02-11T06:04:53.919Z,103237.13
2023-02-11T06:07:20.448Z,103230.81
2023-02-11T06:09:46.982Z,103230.75
2023-02-11T06:12:13.621Z,103231.66
2023-02-11T06:14:40.255Z,103238.81
2023-02-11T06:17:06.915Z,103246.88
2023-02-11T06:19:33.877Z,103246.00
2023-02-11T06:22:00.478Z,103249.56
2023-02-11T06:24:48.134Z,103241.41
2023-02-11T06:27:13.771Z,103246.72
2023-02-11T06:29:40.336Z,103248.53
2023-02-11T06:32:08.614Z,103247.72
2023-02-11T06:34:38.652Z,103250.41
2023-02-11T06:37:05.694Z,103259.34
2023-02-11T06:39:32.417Z,103255.78
2023-02-11T06:41:59.061Z,103253.97
2023-02-11T06:44:25.894Z,103256.66
2023-02-11T06:46:52.446Z,103247.72
2023-02-11T06:49:19.196Z,103253.97
2023-02-11T06:51:45.814Z,103253.91
2023-02-11T06:54:13.069Z,103251.22
2023-02-11T06:56:40.896Z,103252.09
2023-02-11T06:59:07.673Z,103257.44
2023-02-11T07:01:34.653Z,103265.50
2023-02-11T07:04:01.310Z,103263.59
2023-02-11T07:06:28.272Z,103266.16
2023-02-11T07:08:55.745Z,103256.34
2023-02-11T07:11:25.884Z,103265.34
2023-02-11T07:13:54.853Z,103264.47
2023-02-11T07:16:21.681Z,103265.41
2023-02-11T07:18:48.955Z,103274.34
2023-02-11T07:21:18.658Z,103276.09
2023-02-11T07:23:46.219Z,103275.22
2023-02-11T07:26:16.444Z,103278.78
2023-02-11T07:28:43.702Z,103277.84
2023-02-11T07:31:11.740Z,103286.78
2023-02-11T07:33:42.080Z,103276.03
2023-02-11T07:36:10.711Z,103274.22
2023-02-11T07:38:38.637Z,103283.16
2023-02-11T07:41:08.338Z,103288.56
2023-02-11T07:43:36.105Z,103288.50
2023-02-11T07:46:21.752Z,103293.81
2023-02-11T07:48:48.834Z,103297.34
2023-02-11T07:51:21.210Z,103304.47
2023-02-11T07:53:48.254Z,103302.66
2023-02-11T07:56:16.727Z,103304.41
2023-02-11T07:58:44.288Z,103302.56
2023-02-11T08:01:16.558Z,103300.81
2023-02-11T08:03:43.292Z,103305.25
2023-02-11T08:06:13.306Z,103303.50
2023-02-11T08:08:40.556Z,103305.25
2023-02-11T08:11:13.950Z,103304.28
2023-02-11T08:13:42.327Z,103304.22
2023-02-11T08:16:09.746Z,103306.03
2023-02-11T08:18:36.535Z,103313.16
2023-02-11T08:21:07.895Z,103321.13
2023-02-11T08:23:38.586Z,103320.16
2023-02-11T08:26:08.229Z,103320.09
2023-02-11T08:28:36.949Z,103314.63
2023-02-11T08:31:11.672Z,103316.38
2023-02-11T08:33:40.710Z,103319.88
2023-02-11T08:36:12.269Z,103320.78
2023-02-11T08:38:39.104Z,103318.97
2023-02-11T08:41:06.249Z,103318.97
2023-02-11T08:43:33.446Z,103316.16
2023-02-11T08:46:02.151Z,103321.50
2023-02-11T08:48:29.142Z,103325.94
2023-02-11T08:50:56.581Z,103325.00
2023-02-11T08:53:23.550Z,103333.03
2023-02-11T08:55:55.590Z,103328.44
2023-02-11T08:58:22.521Z,103329.22
2023-02-11T09:00:50.118Z,103333.56
2023-02-11T09:03:17.959Z,103323.66
2023-02-11T09:05:47.159Z,103328.03
2023-02-11T09:08:16.453Z,103328.81
2023-02-11T09:10:43.089Z,103336.72
2023-02-11T09:13:10.031Z,103340.19
2023-02-11T09:15:36.761Z,103340.09
2023-02-11T09:18:04.026Z,103344.47
2023-02-11T09:20:31.483Z,103343.50
2023-02-11T09:23:00.981Z,103347.00
2023-02-11T09:25:27.719Z,103356.78
2023-02-11T09:27:54.269Z,103360.28
2023-02-11T09:30:21.502Z,103362.88
2023-02-11T09:32:48.255Z,103356.50
2023-02-11T09:35:14.986Z,103360.03
2023-02-11T09:37:41.622Z,103353.72
2023-02-11T09:40:09.278Z,103362.63
2023-02-11T09:42:50.968Z,103366.25
2023-02-11T09:45:24.465Z,103362.50
2023-02-11T09:47:56.734Z,103364.22
2023-02-11T09:50:30.335Z,103372.16
2023-02-11T09:53:29.877Z,103373.00
2023-02-11T09:56:03.137Z,103377.34
2023-02-11T09:58:36.229Z,103376.38
2023-02-11T10:01:18.756Z,103377.19
2023-02-11T10:04:34.616Z,103378.84
2023-02-11T10:07:46.422Z,103385.00
2023-02-11T10:10:47.772Z,103391.25
2023-02-11T10:13:33.770Z,103395.59
2023-02-11T10:16:38.137Z,103400.97
2023-02-11T10:19:07.370Z,103399.94
2023-02-11T10:21:51.831Z,103406.13
2023-02-11T10:24:19.900Z,103412.28
2023-02-11T10:26:46.972Z,103407.78
2023-02-11T10:29:36.826Z,103406.84
2023-02-11T10:32:15.458Z,103420.16
2023-02-11T10:34:42.489Z,103419.22
2023-02-11T10:37:13.536Z,103421.97
2023-02-11T10:39:40.891Z,103424.59
2023-02-11T10:42:12.025Z,103427.28
2023-02-11T10:44:52.074Z,103419.97
2023-02-11T10:47:24.347Z,103427.06
2023-02-11T10:49:51.183Z,103427.00
2023-02-11T10:52:17.627Z,103432.41
2023-02-11T10:55:01.073Z,103435.09
2023-02-11T10:57:37.827Z,103433.22
2023-02-11T11:00:27.394Z,103440.47
2023-02-11T11:02:59.879Z,103429.66
2023-02-11T11:05:36.239Z,103435.91
2023-02-11T11:08:08.924Z,103439.50
2023-02-11T11:10:45.987Z,103434.88
2023-02-11T11:13:32.602Z,103438.44
2023-02-11T11:16:09.592Z,103433.81
2023-02-11T11:18:36.312Z,103438.22
2023-02-11T11:21:07.659Z,103435.47
2023-02-11T11:23:38.698Z,103438.03
2023-02-11T11:26:11.535Z,103444.13
2023-02-11T11:28:55.836Z,103433.25
2023-02-11T11:31:29.982Z,103435.81
2023-02-11T11:33:59.354Z,103443.72
2023-02-11T11:36:46.258Z,103440.88
2023-02-11T11:39:29.796Z,103434.41
2023-02-11T11:42:00.391Z,103434.22
2023-02-11T11:44:39.642Z,103434.91
2023-02-11T11:47:12.234Z,103421.31
2023-02-11T11:49:51.143Z,103428.41
2023-02-11T11:53:01.206Z,103428.22
2023-02-11T11:55:35.101Z,103419.13
2023-02-11T11:58:01.967Z,103422.69
2023-02-11T12:00:36.571Z,103419.94
2023-02-11T12:03:21.694Z,103416.19
2023-02-11T12:06:07.220Z,103412.44
2023-02-11T12:08:41.327Z,103407.72
2023-02-11T12:11:19.943Z,103412.88
2023-02-11T12:13:57.979Z,103417.88
2023-02-11T12:17:09.028Z,103412.28
2023-02-11T12:19:48.054Z,103417.28
2023-02-11T12:22:52.995Z,103413.38
2023-02-11T12:25:38.672Z,103414.03
2023-02-11T12:28:58.961Z,103410.28
2023-02-11T12:31:37.246Z,103403.78
2023-02-11T12:34:21.829Z,103405.47
2023-02-11T12:37:17.454Z,103404.53
2023-02-11T12:40:03.338Z,103398.06
2023-02-11T12:43:05.680Z,103394.16
2023-02-11T12:46:17.050Z,103390.22
2023-02-11T12:49:04.515Z,103393.75
2023-02-11T12:51:58.805Z,103391.84
2023-02-11T12:54:44.482Z,103383.63
2023-02-11T12:57:22.039Z,103393.28
2023-02-11T13:00:05.094Z,103384.09
2023-02-11T13:02:44.621Z,103381.19
2023-02-11T13:05:24.995Z,103386.31
2023-02-11T13:07:55.523Z,103395.06
2023-02-11T13:10:27.694Z,103401.03
2023-02-11T13:13:14.393Z,103396.25
2023-02-11T13:15:56.095Z,103398.59
2023-02-11T13:18:37.534Z,103393.84
2023-02-11T13:21:16.547Z,103392.59
2023-02-11T13:23:57.981Z,103398.72
2023-02-11T13:26:52.570Z,103401.28
2023-02-11T13:29:32.416Z,103394.84
2023-02-11T13:32:08.440Z,103396.66
2023-02-11T13:34:41.165Z,103395.78
2023-02-11T13:37:47.628Z,103392.22
2023-02-11T13:40:27.163Z,103375.97
2023-02-11T13:43:00.250Z,103392.13
2023-02-11T13:45:33.575Z,103388.56
2023-02-11T13:48:05.191Z,103393.00
2023-02-11T13:50:39.543Z,103388.34
2023-02-11T13:53:08.832Z,103393.59
2023-02-11T13:55:35.958Z,103395.34
2023-02-11T13:58:08.231Z,103386.38
2023-02-11T14:00:34.788Z,103391.69
2023-02-11T14:03:47.684Z,103391.63
2023-02-11T14:06:34.799Z,103395.94
2023-02-11T14:09:11.362Z,103398.72
2023-02-11T14:11:45.575Z,103394.25
2023-02-11T14:14:19.791Z,103396.16
2023-02-11T14:16:59.802Z,103394.41
2023-02-11T14:19:45.628Z,103406.09
2023-02-11T14:22:14.009Z,103393.22
2023-02-11T14:24:54.059Z,103404.84
2023-02-11T14:27:27.361Z,103405.88
2023-02-11T14:30:08.059Z,103404.28
2023-02-11T14:32:45.725Z,103401.63
2023-02-11T14:35:33.960Z,103398.13
2023-02-11T14:38:19.713Z,103402.66
2023-02-11T14:41:02.126Z,103402.59
2023-02-11T14:43:35.233Z,103396.31
2023-02-11T14:46:03.283Z,103406.38
2023-02-11T14:48:38.134Z,103403.84
2023-02-11T14:51:16.338Z,103409.25
2023-02-11T14:53:48.070Z,103408.28
2023-02-11T14:56:42.309Z,103407.41
2023-02-11T14:59:20.790Z,103412.75
2023-02-11T15:01:54.739Z,103405.72
2023-02-11T15:04:25.634Z,103401.28
2023-02-11T15:06:54.014Z,103402.22
2023-02-11T15:09:28.080Z,103406.81
2023-02-11T15:11:56.922Z,103401.41
2023-02-11T15:14:27.344Z,103410.41
2023-02-11T15:16:57.454Z,103415.88
2023-02-11T15:19:36.132Z,103407.88
2023-02-11T15:22:18.175Z,103424.94
2023-02-11T15:24:44.911Z,103423.03
2023-02-11T15:27:17.385Z,103425.75
2023-02-11T15:29:49.264Z,103434.66
2023-02-11T15:32:21.764Z,103435.47
2023-02-11T15:34:51.565Z,103433.66
2023-02-11T15:37:32.325Z,103434.53
2023-02-11T15:40:15.337Z,103429.19
2023-02-11T15:42:56.193Z,103431.97
2023-02-11T15:45:29.581Z,103430.22
2023-02-11T15:48:06.868Z,103434.81
2023-02-11T15:50:37.175Z,103437.50
2023-02-11T15:53:19.797Z,103434.88
2023-02-11T15:55:48.935Z,103434.00
2023-02-11T15:58:15.738Z,103432.28
2023-02-11T16:00:50.177Z,103440.59
2023-02-11T16:03:25.081Z,103437.91
2023-02-11T16:05:51.820Z,103425.34
2023-02-11T16:08:25.427Z,103434.41
2023-02-11T16:11:08.877Z,103436.28
2023-02-11T16:13:46.963Z,103434.59
2023-02-11T16:16:26.255Z,103433.78
2023-02-11T16:19:04.720Z,103427.50
2023-02-11T16:21:36.257Z,103437.31
2023-02-11T16:24:03.877Z,103431.91
2023-02-11T16:26:39.360Z,103432.03
2023-02-11T16:29:13.744Z,103431.03
2023-02-11T16:31:43.159Z,103442.72
2023-02-11T16:34:25.709Z,103436.56
2023-02-11T16:36:52.901Z,103435.75
2023-02-11T16:39:22.461Z,103435.09
2023-02-11T16:41:53.087Z,103442.38
2023-02-11T16:44:20.010Z,103437.13
2023-02-11T16:46:46.928Z,103446.16
2023-02-11T16:49:21.379Z,103445.34
2023-02-11T16:51:51.704Z,103446.34
2023-02-11T16:54:19.972Z,103442.91
2023-02-11T16:56:46.721Z,103448.50
2023-02-11T16:59:13.352Z,103448.72
2023-02-11T17:01:41.523Z,103457.03
2023-02-11T17:04:44.781Z,103457.28
2023-02-11T17:07:11.552Z,103462.75
2023-02-11T17:09:38.596Z,103465.72
2023-02-11T17:12:06.052Z,103473.00
2023-02-11T17:14:32.997Z,103475.91
2023-02-11T17:16:59.836Z,103483.19
2023-02-11T17:19:26.475Z,103482.44
2023-02-11T17:21:53.721Z,103482.59
2023-02-11T17:24:22.244Z,103496.16
2023-02-11T17:26:50.074Z,103489.94
2023-02-11T17:29:22.539Z,103487.28
2023-02-11T17:31:49.826Z,103497.28
2023-02-11T17:34:16.948Z,103495.59
2023-02-11T17:36:43.785Z,103500.16
2023-02-11T17:39:10.552Z,103511.91
2023-02-11T17:41:38.400Z,103504.81
2023-02-11T17:44:06.147Z,103502.19
2023-02-11T17:46:34.739Z,103507.66
2023-02-11T17:49:02.132Z,103505.13
2023-02-11T17:51:34.781Z,103508.97
2023-02-11T17:54:04.576Z,103505.66
2023-02-11T17:56:35.928Z,103497.81
2023-02-11T17:59:03.686Z,103510.50
2023-02-11T18:01:32.218Z,103507.13
2023-02-11T18:03:59.111Z,103510.88
2023-02-11T18:06:26.058Z,103517.31
2023-02-11T18:08:52.658Z,103512.97
2023-02-11T18:11:19.428Z,103514.94
2023-02-11T18:13:51.401Z,103515.97
2023-02-11T18:16:17.958Z,103513.34
2023-02-11T18:18:45.169Z,103520.66
2023-02-11T18:21:13.757Z,103528.81
2023-02-11T18:23:40.391Z,103535.22
2023-02-11T18:26:08.259Z,103537.03
2023-02-11T18:28:34.916Z,103538.91
2023-02-11T18:31:02.199Z,103542.53
2023-02-11T18:33:30.214Z,103544.28
2023-02-11T18:35:57.160Z,103549.75
2023-02-11T18:38:24.614Z,103543.41
2023-02-11T18:40:52.418Z,103544.34
2023-02-11T18:43:20.653Z,103542.53
2023-02-11T18:45:48.998Z,103544.34
2023-02-11T18:48:16.390Z,103547.94
2023-02-11T18:50:44.554Z,103553.38
2023-02-11T18:53:12.936Z,103548.94
2023-02-11T18:55:43.563Z,103555.19
2023-02-11T18:58:11.544Z,103555.19
2023-02-11T19:00:44.050Z,103552.56
2023-02-11T19:03:10.757Z,103551.72
2023-02-11T19:05:47.830Z,103557.19
2023-02-11T19:08:14.981Z,103555.44
2023-02-11T19:10:43.769Z,103560.00
2023-02-11T19:13:10.919Z,103559.16
2023-02-11T19:15:42.534Z,103560.09
2023-02-11T19:18:09.817Z,103563.69
2023-02-11T19:20:40.023Z,103564.63
2023-02-11T19:23:06.769Z,103573.59
2023-02-11T19:25:33.408Z,103572.72
2023-02-11T19:28:00.434Z,103575.44
2023-02-11T19:30:27.504Z,103582.56
2023-02-11T19:32:57.099Z,103586.06
2023-02-11T19:35:25.281Z,103571.72
2023-02-11T19:37:52.050Z,103584.19
2023-02-11T19:40:19.275Z,103585.19
2023-02-11T19:42:45.904Z,103587.09
2023-02-11T19:45:12.748Z,103597.00
2023-02-11T19:47:41.019Z,103595.22
2023-02-11T19:50:08.608Z,103606.03
2023-02-11T19:52:38.224Z,103605.09
2023-02-11T19:55:05.331Z,103605.97
2023-02-11T19:57:31.971Z,103607.75
2023-02-11T19:59:58.811Z,103608.59
2023-02-11T20:02:25.603Z,103607.69
2023-02-11T20:04:52.290Z,103604.06
2023-02-11T20:07:18.927Z,103607.69
2023-02-11T20:09:45.765Z,103617.59
2023-02-11T20:12:12.413Z,103614.91
2023-02-11T20:14:39.145Z,103614.03
2023-02-11T20:17:06.799Z,103615.84
2023-02-11T20:19:33.443Z,103623.03
2023-02-11T20:22:00.099Z,103624.84
2023-02-11T20:24:26.707Z,103631.16
2023-02-11T20:26:56.723Z,103625.81
2023-02-11T20:29:24.592Z,103627.63
2023-02-11T20:31:51.403Z,103626.81
2023-02-11T20:34:18.796Z,103635.78
2023-02-11T20:36:51.820Z,103626.88
2023-02-11T20:39:21.823Z,103636.81
2023-02-11T20:41:50.771Z,103635.06
2023-02-11T20:44:17.721Z,103644.03
2023-02-11T20:46:48.481Z,103651.06
2023-02-11T20:49:18.916Z,103643.69
2023-02-11T20:51:45.918Z,103644.34
2023-02-11T20:54:15.226Z,103651.28
2023-02-11T20:56:42.195Z,103653.75
2023-02-11T20:59:09.111Z,103655.34
2023-02-11T21:01:40.708Z,103658.72
2023-02-11T21:04:13.338Z,103660.34
2023-02-11T21:06:45.910Z,103667.47
2023-02-11T21:09:15.828Z,103668.28
2023-02-11T21:11:43.179Z,103663.81
2023-02-11T21:14:10.327Z,103668.28
2023-02-11T21:16:37.271Z,103670.88
2023-02-11T21:19:04.632Z,103674.34
2023-02-11T21:21:31.672Z,103678.75
2023-02-11T21:23:59.436Z,103671.44
2023-02-11T21:26:26.281Z,103675.84
2023-02-11T21:28:55.122Z,103665.00
2023-02-11T21:31:27.576Z,103681.19
2023-02-11T21:33:56.736Z,103676.72
2023-02-11T21:36:23.951Z,103685.69
2023-02-11T21:38:51.051Z,103691.03
2023-02-11T21:41:18.901Z,103689.22
2023-02-11T21:43:45.657Z,103690.97
2023-02-11T21:46:15.206Z,103693.69
2023-02-11T21:48:42.910Z,103694.56
2023-02-11T21:51:13.849Z,103694.56
2023-02-11T21:53:40.486Z,103701.78
2023-02-11T21:56:12.856Z,103706.25
2023-02-11T21:58:40.001Z,103709.81
2023-02-11T22:01:16.780Z,103708.19
2023-02-11T22:03:44.025Z,103698.31
2023-02-11T22:06:13.637Z,103708.28
2023-02-11T22:08:40.879Z,103701.13
2023-02-11T22:11:12.206Z,103697.63
2023-02-11T22:13:39.490Z,103695.03
2023-02-11T22:16:08.834Z,103687.94
2023-02-11T22:18:35.825Z,103688.94
2023-02-11T22:21:14.546Z,103703.34
2023-02-11T22:23:41.288Z,103699.72
2023-02-11T22:26:12.537Z,103699.72
2023-02-11T22:28:40.934Z,103705.13
2023-02-11T22:31:12.379Z,103705.22
2023-02-11T22:33:39.399Z,103703.53
2023-02-11T22:36:08.591Z,103704.47
2023-02-11T22:38:35.744Z,103709.91
2023-02-11T22:41:07.943Z,103709.97
2023-02-11T22:43:34.871Z,103710.97
2023-02-11T22:46:03.268Z,103713.72
2023-02-11T22:48:29.961Z,103715.53
2023-02-11T22:50:57.111Z,103711.06
2023-02-11T22:53:25.588Z,103706.59
2023-02-11T22:55:52.517Z,103702.16
2023-02-11T22:58:19.377Z,103707.59
2023-02-11T23:00:46.030Z,103699.56
2023-02-11T23:03:12.961Z,103706.81
2023-02-11T23:05:41.346Z,103710.44
2023-02-11T23:08:10.123Z,103712.28
2023-02-11T23:10:38.606Z,103708.69
2023-02-11T23:13:06.669Z,103713.25
2023-02-11T23:15:34.127Z,103712.38
2023-02-11T23:18:00.767Z,103718.66
2023-02-11T23:20:27.398Z,103716.84
2023-02-11T23:22:54.037Z,103713.25
2023-02-11T23:25:20.775Z,103715.06
2023-02-11T23:27:47.413Z,103720.47
2023-02-11T23:30:14.466Z,103718.75
2023-02-11T23:32:41.094Z,103711.59
2023-02-11T23:35:07.948Z,103718.88
2023-02-11T23:37:34.576Z,103715.28
2023-02-11T23:40:01.412Z,103725.19
2023-02-11T23:42:29.187Z,103715.34
2023-02-11T23:44:55.778Z,103718.09
2023-02-11T23:47:22.357Z,103712.81
2023-02-11T23:49:48.990Z,103716.44
2023-02-11T23:52:15.627Z,103722.69
2023-02-11T23:54:43.404Z,103721.88
2023-02-11T23:57:10.120Z,103722.78
2023-02-11T23:59:36.863Z,103716.50
